createdAt,value
2023-03-11T00:00:34.084Z,2.10
2023-03-11T00:03:04.329Z,1.93
2023-03-11T00:05:34.913Z,1.93
2023-03-11T00:08:04.906Z,1.60
2023-03-11T00:10:35.109Z,2.00
2023-03-11T00:13:08.549Z,2.23
2023-03-11T00:15:38.978Z,2.17
2023-03-11T00:18:08.880Z,2.00
2023-03-11T00:20:39.617Z,1.67
2023-03-11T00:23:09.965Z,2.10
2023-03-11T00:25:41.337Z,1.50
2023-03-11T00:28:13.650Z,1.73
2023-03-11T00:30:44.469Z,1.40
2023-03-11T00:33:14.771Z,1.37
2023-03-11T00:35:45.150Z,1.80
2023-03-11T00:38:15.964Z,1.70
2023-03-11T00:40:45.940Z,1.50
2023-03-11T00:43:18.513Z,1.23
2023-03-11T00:45:48.371Z,1.77
2023-03-11T00:48:17.939Z,1.20
2023-03-11T00:50:47.568Z,1.17
2023-03-11T00:53:17.029Z,1.50
2023-03-11T00:55:46.496Z,0.73
2023-03-11T00:58:19.018Z,1.40
2023-03-11T01:00:51.415Z,0.97
2023-03-11T01:03:21.145Z,1.63
2023-03-11T01:05:50.934Z,1.40
2023-03-11T01:08:20.504Z,1.23
2023-03-11T01:10:50.441Z,1.40
2023-03-11T01:13:24.641Z,1.00
2023-03-11T01:15:54.842Z,1.03
2023-03-11T01:18:24.471Z,1.20
2023-03-11T01:20:54.280Z,1.23
2023-03-11T01:23:24.131Z,1.27
2023-03-11T01:25:53.651Z,0.93
2023-03-11T01:28:25.789Z,1.40
2023-03-11T01:30:55.418Z,1.13
2023-03-11T01:33:24.864Z,1.27
2023-03-11T01:35:54.436Z,0.97
2023-03-11T01:38:24.066Z,1.20
2023-03-11T01:40:54.418Z,1.13
2023-03-11T01:43:39.007Z,0.80
2023-03-11T01:46:16.311Z,1.13
2023-03-11T01:48:49.181Z,1.13
2023-03-11T01:51:20.380Z,0.83
2023-03-11T01:53:50.164Z,1.13
2023-03-11T01:56:19.776Z,0.93
2023-03-11T01:58:52.477Z,0.87
2023-03-11T02:01:25.269Z,1.30
2023-03-11T02:03:55.281Z,1.80
2023-03-11T02:06:26.095Z,1.30
2023-03-11T02:08:57.066Z,1.00
2023-03-11T02:11:27.876Z,1.07
2023-03-11T02:14:00.346Z,1.30
2023-03-11T02:16:32.545Z,1.00
2023-03-11T02:19:03.448Z,1.07
2023-03-11T02:21:34.637Z,0.67
2023-03-11T02:24:08.718Z,0.80
2023-03-11T02:26:40.377Z,1.10
2023-03-11T02:29:14.024Z,1.07
2023-03-11T02:31:45.166Z,1.33
2023-03-11T02:34:19.119Z,1.33
2023-03-11T02:36:48.944Z,1.00
2023-03-11T02:39:18.583Z,1.40
2023-03-11T02:41:49.890Z,1.13
2023-03-11T02:44:22.114Z,1.07
2023-03-11T02:46:51.692Z,0.97
2023-03-11T02:49:21.401Z,1.00
2023-03-11T02:51:52.399Z,1.20
2023-03-11T02:54:22.076Z,1.20
2023-03-11T02:56:51.637Z,1.30
2023-03-11T02:59:24.329Z,1.17
2023-03-11T03:01:54.030Z,1.30
2023-03-11T03:04:24.392Z,1.43
2023-03-11T03:06:53.977Z,1.60
2023-03-11T03:09:23.401Z,1.30
2023-03-11T03:11:52.963Z,1.27
2023-03-11T03:14:25.033Z,1.10
2023-03-11T03:16:54.743Z,1.20
2023-03-11T03:19:24.332Z,1.30
2023-03-11T03:21:54.561Z,1.60
2023-03-11T03:24:25.686Z,1.03
2023-03-11T03:26:55.217Z,1.50
2023-03-11T03:29:27.324Z,1.23
2023-03-11T03:31:57.217Z,1.30
2023-03-11T03:34:26.706Z,1.30
2023-03-11T03:36:56.324Z,1.40
2023-03-11T03:39:25.971Z,1.10
2023-03-11T03:41:55.740Z,1.30
2023-03-11T03:44:30.729Z,0.90
2023-03-11T03:47:01.924Z,1.07
2023-03-11T03:49:32.005Z,1.47
2023-03-11T03:52:01.829Z,1.30
2023-03-11T03:54:34.323Z,1.10
2023-03-11T03:57:05.607Z,1.30
2023-03-11T03:59:44.288Z,0.93
2023-03-11T04:02:13.944Z,1.00
2023-03-11T04:04:43.571Z,1.67
2023-03-11T04:07:13.933Z,1.40
2023-03-11T04:09:43.795Z,1.37
2023-03-11T04:12:16.216Z,1.30
2023-03-11T04:14:48.835Z,1.00
2023-03-11T04:17:18.893Z,1.43
2023-03-11T04:19:48.491Z,1.30
2023-03-11T04:22:18.507Z,0.90
2023-03-11T04:24:48.246Z,1.60
2023-03-11T04:27:17.779Z,1.50
2023-03-11T04:29:50.420Z,1.30
2023-03-11T04:32:20.002Z,1.43
2023-03-11T04:34:49.465Z,1.50
2023-03-11T04:37:19.100Z,1.20
2023-03-11T04:39:48.560Z,1.33
2023-03-11T04:42:19.258Z,1.27
2023-03-11T04:44:52.474Z,1.40
2023-03-11T04:47:22.583Z,1.60
2023-03-11T04:49:52.094Z,1.30
2023-03-11T04:52:21.603Z,1.60
2023-03-11T04:54:51.230Z,1.80
2023-03-11T04:57:20.826Z,1.27
2023-03-11T04:59:53.655Z,1.40
2023-03-11T05:02:23.231Z,1.43
2023-03-11T05:04:57.385Z,2.00
2023-03-11T05:07:27.455Z,1.67
2023-03-11T05:09:57.596Z,1.67
2023-03-11T05:12:27.468Z,1.43
2023-03-11T05:15:00.275Z,1.53
2023-03-11T05:17:29.813Z,1.20
2023-03-11T05:19:59.469Z,1.03
2023-03-11T05:22:34.210Z,1.13
2023-03-11T05:25:03.942Z,1.97
2023-03-11T05:27:33.475Z,1.40
2023-03-11T05:30:05.642Z,1.60
2023-03-11T05:32:37.711Z,1.53
2023-03-11T05:35:09.610Z,1.30
2023-03-11T05:37:39.821Z,1.27
2023-03-11T05:40:11.038Z,1.50
2023-03-11T05:42:41.425Z,1.40
2023-03-11T05:45:15.284Z,1.60
2023-03-11T05:47:47.068Z,1.57
2023-03-11T05:50:18.448Z,1.43
2023-03-11T05:52:49.437Z,1.50
2023-03-11T05:55:19.799Z,1.67
2023-03-11T05:57:50.026Z,1.30
2023-03-11T06:00:23.023Z,1.40
2023-03-11T06:02:55.106Z,1.30
2023-03-11T06:05:24.789Z,1.43
2023-03-11T06:07:55.879Z,1.37
2023-03-11T06:10:26.220Z,1.67
2023-03-11T06:12:55.740Z,1.23
2023-03-11T06:15:31.410Z,1.13
2023-03-11T06:18:01.340Z,1.03
2023-03-11T06:20:31.367Z,1.17
2023-03-11T06:23:00.818Z,0.83
2023-03-11T06:25:30.504Z,0.90
2023-03-11T06:28:00.261Z,1.30
2023-03-11T06:30:32.424Z,0.87
2023-03-11T06:33:08.408Z,1.13
2023-03-11T06:35:38.015Z,1.37
2023-03-11T06:38:07.558Z,1.20
2023-03-11T06:40:37.078Z,1.47
2023-03-11T06:43:06.533Z,1.80
2023-03-11T06:45:42.831Z,1.83
2023-03-11T06:48:12.643Z,1.90
2023-03-11T06:50:42.813Z,1.50
2023-03-11T06:53:12.936Z,1.70
2023-03-11T06:55:42.415Z,1.40
2023-03-11T06:58:12.037Z,1.23
2023-03-11T07:00:44.258Z,1.47
2023-03-11T07:03:14.153Z,1.00
2023-03-11T07:05:43.788Z,0.80
2023-03-11T07:08:14.323Z,1.13
2023-03-11T07:10:43.984Z,1.30
2023-03-11T07:13:14.033Z,0.83
2023-03-11T07:15:46.524Z,1.17
2023-03-11T07:18:16.459Z,1.50
2023-03-11T07:20:47.746Z,1.27
2023-03-11T07:23:17.286Z,0.93
2023-03-11T07:25:48.711Z,1.50
2023-03-11T07:28:18.931Z,1.07
2023-03-11T07:30:51.197Z,1.60
2023-03-11T07:33:20.938Z,1.27
2023-03-11T07:35:50.798Z,1.40
2023-03-11T07:38:20.329Z,1.50
2023-03-11T07:40:49.800Z,1.93
2023-03-11T07:43:19.731Z,2.10
2023-03-11T07:45:51.989Z,2.10
2023-03-11T07:48:21.552Z,1.23
2023-03-11T07:50:51.032Z,1.40
2023-03-11T07:53:20.616Z,1.70
2023-03-11T07:55:50.069Z,2.23
2023-03-11T07:58:19.563Z,1.70
2023-03-11T08:00:49.055Z,1.63
2023-03-11T08:03:21.415Z,1.37
2023-03-11T08:05:51.750Z,1.87
2023-03-11T08:08:21.753Z,1.30
2023-03-11T08:10:51.211Z,1.60
2023-03-11T08:13:20.751Z,1.90
2023-03-11T08:15:50.234Z,1.53
2023-03-11T08:18:22.497Z,1.80
2023-03-11T08:20:52.034Z,1.90
2023-03-11T08:23:21.581Z,1.70
2023-03-11T08:25:51.171Z,1.53
2023-03-11T08:28:20.651Z,1.30
2023-03-11T08:30:50.228Z,1.63
2023-03-11T08:33:22.516Z,1.53
2023-03-11T08:35:52.197Z,1.30
2023-03-11T08:38:21.766Z,1.30
2023-03-11T08:40:51.323Z,1.50
2023-03-11T08:43:20.775Z,1.30
2023-03-11T08:45:50.222Z,1.17
2023-03-11T08:48:23.740Z,1.37
2023-03-11T08:50:54.739Z,1.03
2023-03-11T08:53:24.874Z,1.03
2023-03-11T08:55:54.845Z,1.73
2023-03-11T08:58:24.310Z,1.70
2023-03-11T09:00:53.792Z,1.57
2023-03-11T09:03:25.897Z,1.33
2023-03-11T09:05:59.712Z,1.77
2023-03-11T09:08:29.346Z,1.77
2023-03-11T09:10:58.825Z,1.20
2023-03-11T09:13:28.778Z,0.93
2023-03-11T09:15:58.269Z,1.70
2023-03-11T09:18:30.639Z,1.00
2023-03-11T09:21:00.450Z,1.27
2023-03-11T09:23:29.940Z,1.50
2023-03-11T09:25:59.496Z,1.43
2023-03-11T09:28:29.024Z,1.30
2023-03-11T09:30:58.605Z,0.87
2023-03-11T09:33:31.010Z,1.23
2023-03-11T09:36:00.852Z,1.00
2023-03-11T09:38:30.392Z,1.07
2023-03-11T09:41:02.760Z,1.10
2023-03-11T09:43:37.782Z,0.80
2023-03-11T09:46:15.389Z,1.30
2023-03-11T09:48:51.259Z,1.23
2023-03-11T09:51:25.160Z,1.07
2023-03-11T09:53:56.145Z,1.13
2023-03-11T09:56:26.005Z,1.03
2023-03-11T09:58:58.362Z,0.80
2023-03-11T10:01:29.202Z,0.93
2023-03-11T10:04:05.028Z,1.23
2023-03-11T10:06:34.640Z,1.07
2023-03-11T10:09:08.037Z,0.90
2023-03-11T10:11:47.068Z,0.83
2023-03-11T10:14:20.906Z,1.07
2023-03-11T10:16:55.974Z,1.07
2023-03-11T10:19:33.543Z,1.10
2023-03-11T10:22:08.701Z,1.20
2023-03-11T10:24:48.073Z,1.00
2023-03-11T10:27:18.983Z,0.83
2023-03-11T10:29:53.579Z,0.90
2023-03-11T10:32:26.328Z,1.10
2023-03-11T10:35:01.903Z,1.47
2023-03-11T10:37:47.943Z,1.10
2023-03-11T10:40:23.785Z,0.90
2023-03-11T10:42:55.172Z,0.80
2023-03-11T10:45:25.765Z,0.73
2023-03-11T10:47:55.300Z,1.03
2023-03-11T10:50:27.391Z,0.70
2023-03-11T10:53:10.872Z,0.67
2023-03-11T10:55:48.330Z,1.37
2023-03-11T10:58:18.948Z,0.80
2023-03-11T11:00:48.976Z,0.90
2023-03-11T11:03:24.477Z,1.00
2023-03-11T11:06:04.284Z,0.67
2023-03-11T11:08:34.047Z,1.90
2023-03-11T11:11:04.686Z,1.00
2023-03-11T11:13:36.007Z,1.00
2023-03-11T11:16:06.936Z,0.87
2023-03-11T11:18:37.291Z,1.30
2023-03-11T11:21:10.677Z,0.70
2023-03-11T11:23:43.565Z,0.70
2023-03-11T11:26:18.944Z,0.93
2023-03-11T11:28:48.488Z,0.60
2023-03-11T11:31:26.170Z,1.07
2023-03-11T11:33:56.392Z,1.30
2023-03-11T11:36:30.482Z,0.90
2023-03-11T11:39:03.450Z,1.10
2023-03-11T11:41:33.425Z,0.88
2023-03-11T11:44:04.340Z,0.88
2023-03-11T11:46:37.054Z,0.75
2023-03-11T11:49:11.240Z,0.70
2023-03-11T11:51:45.657Z,0.90
2023-03-11T11:54:20.038Z,1.50
2023-03-11T11:56:49.568Z,1.25
2023-03-11T11:59:21.742Z,1.15
2023-03-11T12:01:55.390Z,1.03
2023-03-11T12:04:37.929Z,1.03
2023-03-11T12:07:14.568Z,1.23
2023-03-11T12:09:49.889Z,1.13
2023-03-11T12:12:24.309Z,0.85
2023-03-11T13:13:52.249Z,1.00
2023-03-11T13:16:36.987Z,1.23
2023-03-11T13:19:21.542Z,1.55
2023-03-11T13:21:51.147Z,1.77
2023-03-11T13:24:35.678Z,1.38
2023-03-11T13:27:06.868Z,1.33
2023-03-11T13:29:54.802Z,1.48
2023-03-11T13:32:39.091Z,1.23
2023-03-11T13:35:15.280Z,1.73
2023-03-11T13:37:49.694Z,1.65
2023-03-11T13:40:26.545Z,1.38
2023-03-11T13:42:57.666Z,1.65
2023-03-11T13:45:32.763Z,1.98
2023-03-11T13:48:04.234Z,2.35
2023-03-11T13:50:34.865Z,1.60
2023-03-11T13:53:06.388Z,2.50
2023-03-11T13:55:37.628Z,1.45
2023-03-11T13:58:16.799Z,3.13
2023-03-11T14:00:56.025Z,3.00
2023-03-11T14:03:26.196Z,3.05
2023-03-11T14:06:00.336Z,2.77
2023-03-11T14:08:31.759Z,1.97
2023-03-11T14:11:01.992Z,2.00
2023-03-11T14:13:32.420Z,3.57
2023-03-11T14:16:06.072Z,7.77
2023-03-11T14:18:39.659Z,3.33
2023-03-11T14:21:10.258Z,4.27
2023-03-11T14:23:43.220Z,4.72
2023-03-11T14:26:15.769Z,3.10
2023-03-11T14:28:47.572Z,2.03
2023-03-11T14:31:28.149Z,3.95
2023-03-11T14:33:58.730Z,3.33
2023-03-11T14:36:28.426Z,2.17
2023-03-11T14:38:57.877Z,2.00
2023-03-11T14:41:27.650Z,4.20
2023-03-11T14:43:57.633Z,1.75
2023-03-11T14:46:31.193Z,3.15
2023-03-11T14:49:01.325Z,5.68
2023-03-11T14:51:33.395Z,1.83
2023-03-11T14:54:07.139Z,2.70
2023-03-11T14:56:40.317Z,4.22
2023-03-11T14:59:13.346Z,3.25
2023-03-11T15:01:47.206Z,5.43
2023-03-11T15:04:17.736Z,6.25
2023-03-11T15:06:48.116Z,1.45
2023-03-11T15:09:18.781Z,2.33
2023-03-11T15:11:49.733Z,3.42
2023-03-11T15:14:22.043Z,1.50
2023-03-11T15:16:54.677Z,3.40
2023-03-11T15:19:25.574Z,2.75
2023-03-11T15:21:58.624Z,4.55
2023-03-11T15:24:28.884Z,2.25
2023-03-11T15:26:59.696Z,3.00
2023-03-11T15:29:29.760Z,3.95
2023-03-11T15:32:01.988Z,2.05
2023-03-11T15:34:32.709Z,1.50
2023-03-11T15:37:21.434Z,1.40
2023-03-11T15:39:52.429Z,1.65
2023-03-11T15:42:23.046Z,1.80
2023-03-11T15:45:01.263Z,1.80
2023-03-11T15:47:33.615Z,1.20
2023-03-11T15:50:05.385Z,2.20
2023-03-11T15:52:34.884Z,3.83
2023-03-11T15:55:04.410Z,2.47
2023-03-11T15:57:34.084Z,2.20
2023-03-11T16:00:04.579Z,1.30
2023-03-11T16:02:39.200Z,1.08
2023-03-11T16:05:14.996Z,2.13
2023-03-11T16:07:44.668Z,1.17
2023-03-11T16:10:14.400Z,1.45
2023-03-11T16:12:45.489Z,1.20
2023-03-11T16:15:21.115Z,1.20
2023-03-11T16:17:53.490Z,2.17
2023-03-11T16:20:23.444Z,1.58
2023-03-11T16:22:53.739Z,1.50
2023-03-11T16:25:24.540Z,1.25
2023-03-11T16:27:55.930Z,1.15
2023-03-11T16:30:25.989Z,1.15
2023-03-11T16:32:58.301Z,1.73
2023-03-11T16:35:28.234Z,1.63
2023-03-11T16:37:57.841Z,1.30
2023-03-11T16:40:28.466Z,2.25
2023-03-11T16:42:58.797Z,1.93
2023-03-11T16:45:28.480Z,1.40
2023-03-11T16:48:00.601Z,1.33
2023-03-11T16:50:30.311Z,1.23
2023-03-11T16:53:00.163Z,1.60
2023-03-11T16:55:30.731Z,1.70
2023-03-11T16:58:00.267Z,1.70
2023-03-11T17:00:29.781Z,1.38
2023-03-11T17:03:01.890Z,2.03
2023-03-11T17:05:31.515Z,2.30
2023-03-11T17:08:04.485Z,2.17
2023-03-11T17:10:38.281Z,3.33
2023-03-11T17:13:07.955Z,3.60
2023-03-11T17:15:38.380Z,3.57
2023-03-11T17:18:10.757Z,4.07
2023-03-11T17:20:43.585Z,4.85
2023-03-11T17:23:13.440Z,4.93
2023-03-11T17:25:44.177Z,3.63
2023-03-11T17:28:24.675Z,3.90
2023-03-11T17:30:54.603Z,3.47
2023-03-11T17:33:26.840Z,3.93
2023-03-11T17:36:02.495Z,3.17
2023-03-11T17:38:32.285Z,4.00
2023-03-11T17:41:01.932Z,3.30
2023-03-11T17:43:31.422Z,3.13
2023-03-11T17:46:00.916Z,3.17
2023-03-11T17:48:33.516Z,3.87
2023-03-11T17:51:07.130Z,4.03
2023-03-11T17:53:37.991Z,5.20
2023-03-11T17:56:08.558Z,4.77
2023-03-11T17:58:38.515Z,6.23
2023-03-11T18:01:08.728Z,5.63
2023-03-11T18:03:41.036Z,5.73
2023-03-11T18:06:10.690Z,4.33
2023-03-11T18:08:40.162Z,3.33
2023-03-11T18:11:10.556Z,3.40
2023-03-11T18:13:41.029Z,3.43
2023-03-11T18:16:12.133Z,2.80
2023-03-11T18:18:44.705Z,3.50
2023-03-11T18:21:15.206Z,4.77
2023-03-11T18:23:44.924Z,4.80
2023-03-11T18:26:15.877Z,3.20
2023-03-11T18:28:45.504Z,3.40
2023-03-11T18:31:15.965Z,3.30
2023-03-11T18:33:49.769Z,2.87
2023-03-11T18:36:20.224Z,2.90
2023-03-11T18:38:50.890Z,2.17
2023-03-11T18:41:21.167Z,2.53
2023-03-11T18:43:54.178Z,3.83
2023-03-11T18:46:23.916Z,5.33
2023-03-11T18:48:56.957Z,5.53
2023-03-11T18:51:26.728Z,4.27
2023-03-11T18:53:56.454Z,3.63
2023-03-11T18:56:26.010Z,3.40
2023-03-11T18:58:56.094Z,3.20
2023-03-11T19:01:25.720Z,2.70
2023-03-11T19:03:59.038Z,3.10
2023-03-11T19:06:29.857Z,3.07
2023-03-11T19:08:59.654Z,3.53
2023-03-11T19:11:29.209Z,3.77
2023-03-11T19:13:59.513Z,3.77
2023-03-11T19:16:29.084Z,3.43
2023-03-11T19:19:01.646Z,4.33
2023-03-11T19:21:31.527Z,4.00
2023-03-11T19:24:01.297Z,3.90
2023-03-11T19:26:44.432Z,3.50
2023-03-11T19:29:15.280Z,4.27
2023-03-11T19:31:45.666Z,4.17
2023-03-11T19:34:18.074Z,5.03
2023-03-11T19:36:48.175Z,5.20
2023-03-11T19:39:17.646Z,6.37
2023-03-11T19:41:47.156Z,7.13
2023-03-11T19:44:16.637Z,7.17
2023-03-11T19:46:46.140Z,5.97
2023-03-11T19:49:18.234Z,6.40
2023-03-11T19:51:50.400Z,6.97
2023-03-11T19:54:20.674Z,6.73
2023-03-11T19:56:50.219Z,7.53
2023-03-11T19:59:19.695Z,4.87
2023-03-11T20:01:49.230Z,4.37
2023-03-11T20:04:21.521Z,3.97
2023-03-11T20:06:51.228Z,4.30
2023-03-11T20:09:21.016Z,3.60
2023-03-11T20:11:50.556Z,3.70
2023-03-11T20:14:20.060Z,3.63
2023-03-11T20:16:50.458Z,3.50
2023-03-11T20:19:22.608Z,4.03
2023-03-11T20:21:52.255Z,3.73
2023-03-11T20:24:21.767Z,3.60
2023-03-11T20:26:51.454Z,3.73
2023-03-11T20:29:21.353Z,3.60
2023-03-11T20:31:50.923Z,3.70
2023-03-11T20:34:23.428Z,3.33
2023-03-11T20:36:53.596Z,3.33
2023-03-11T20:39:23.173Z,3.47
2023-03-11T20:41:52.774Z,3.33
2023-03-11T20:44:22.275Z,3.63
2023-03-11T20:46:51.885Z,3.97
2023-03-11T20:49:24.194Z,3.53
2023-03-11T20:51:53.828Z,4.77
2023-03-11T20:54:23.418Z,5.70
2023-03-11T20:56:53.613Z,5.17
2023-03-11T20:59:23.144Z,4.53
2023-03-11T21:01:52.796Z,3.67
2023-03-11T21:04:25.033Z,3.90
2023-03-11T21:06:55.517Z,5.00
2023-03-11T21:09:25.173Z,5.40
2023-03-11T21:11:54.800Z,4.53
2023-03-11T21:14:24.475Z,4.17
2023-03-11T21:16:54.172Z,3.67
2023-03-11T21:19:26.437Z,4.00
2023-03-11T21:21:56.056Z,3.43
2023-03-11T21:24:25.679Z,3.73
2023-03-11T21:26:55.266Z,3.43
2023-03-11T21:29:24.916Z,4.27
2023-03-11T21:31:54.654Z,4.80
2023-03-11T21:34:26.861Z,4.70
2023-03-11T21:36:57.283Z,3.93
2023-03-11T21:39:26.938Z,3.77
2023-03-11T21:41:57.299Z,3.73
2023-03-11T21:44:26.899Z,3.67
2023-03-11T21:46:56.588Z,3.37
2023-03-11T21:49:29.209Z,4.23
2023-03-11T21:52:01.674Z,3.70
2023-03-11T21:54:31.822Z,3.33
2023-03-11T21:57:01.454Z,3.63
2023-03-11T21:59:32.157Z,3.40
2023-03-11T22:02:03.311Z,5.03
2023-03-11T22:04:35.806Z,4.63
2023-03-11T22:07:05.569Z,4.20
2023-03-11T22:09:35.228Z,4.63
2023-03-11T22:12:04.915Z,5.00
2023-03-11T22:14:34.781Z,4.83
2023-03-11T22:17:04.375Z,4.77
2023-03-11T22:19:36.563Z,4.80
2023-03-11T22:22:06.367Z,5.00
2023-03-11T22:24:35.882Z,4.30
2023-03-11T22:27:05.418Z,4.37
2023-03-11T22:29:34.990Z,3.40
2023-03-11T22:32:04.517Z,3.70
2023-03-11T22:34:36.789Z,4.63
2023-03-11T22:37:06.384Z,5.17
2023-03-11T22:39:35.955Z,4.93
2023-03-11T22:42:05.742Z,4.40
2023-03-11T22:44:35.315Z,4.83
2023-03-11T22:47:04.857Z,5.83
2023-03-11T22:49:37.224Z,3.90
2023-03-11T22:52:07.106Z,4.17
2023-03-11T22:54:36.662Z,3.83
2023-03-11T22:57:06.240Z,4.13
2023-03-11T22:59:35.755Z,3.80
2023-03-11T23:02:05.322Z,3.93
2023-03-11T23:04:37.427Z,3.67
2023-03-11T23:07:07.066Z,3.00
2023-03-11T23:09:36.561Z,3.10
2023-03-11T23:12:07.078Z,3.60
2023-03-11T23:14:44.973Z,3.03
2023-03-11T23:17:14.889Z,3.40
2023-03-11T23:19:47.014Z,2.80
2023-03-11T23:22:16.581Z,3.33
2023-03-11T23:24:46.094Z,3.80
2023-03-11T23:27:15.693Z,3.83
2023-03-11T23:29:47.944Z,4.13
2023-03-11T23:32:17.558Z,3.67
2023-03-11T23:34:49.731Z,3.40
2023-03-11T23:37:19.321Z,3.37
2023-03-11T23:39:48.842Z,3.37
2023-03-11T23:42:25.474Z,3.60
2023-03-11T23:44:56.013Z,4.17
2023-03-11T23:47:25.534Z,4.57
2023-03-11T23:49:57.665Z,4.47
2023-03-11T23:52:27.308Z,4.20
2023-03-11T23:54:56.846Z,4.63
2023-03-11T23:57:26.368Z,4.93
2023-03-11T23:59:55.860Z,4.70
